AirNav   Air Wisconsin Up To $57,000 Bonus
 
 1022 users online  

TS50 Austinia Airport
Texas City, Texas, USA

GOING TO TEXAS CITY?


FAA INFORMATION EFFECTIVE 10 OCTOBER 2019

Location

FAA Identifier: TS50
Lat/Long: 29-25-02.8360N 094-59-53.7330W
29-25.047267N 094-59.895550W
29.4174544,-94.9982592
(estimated)
Elevation: 15 ft. / 5 m (estimated)
Variation: 06E (1985)
From city: 5 miles NW of TEXAS CITY, TX
Time zone: UTC -5 (UTC -6 during Standard Time)
Zip code: 77590

Airport Operations

Airport use: Private use. Permission required prior to landing
Activation date: 05/1979
Control tower: no
ARTCC: HOUSTON CENTER
FSS: MONTGOMERY COUNTY FLIGHT SERVICE STATION
Attendance: UNATNDD
Wind indicator: yes
Segmented circle: no

Airport Communications

WX ASOS at GLS (12 nm SE): 119.275 (409-740-9248)
WX ASOS at LVJ (14 nm NW): 118.525 (281-992-1853)
WX AWOS-3PT at T41 (15 nm N): 120.275 (281-471-2206)

Nearby radio navigation aids

VOR radial/distance  VOR name  Freq  Var
VUHr316/11.2SCHOLES VOR/DME113.0006E
MHFr232/15.2TRINITY VOR/DME113.6007E
HUBr130/20.4HOBBY VOR/DME117.1005E
IAHr146/37.1HUMBLE VORTAC116.6005E

 
NDB name  Hdg/Dist  Freq  Var  ID
GALVESTON284/13.620608EGLS --. .-.. ...

Airport Services

Runway Information

Runway N/S

Dimensions: 2150 x 100 ft. / 655 x 30 m
Surface: turf
RUNWAY N  RUNWAY S
Traffic pattern: leftleft
Obstructions: 20 ft. trees30 ft. pline

Airport Ownership and Management from official FAA records

Ownership: Privately-owned
Owner: C MICHAEL ORR
2008 TEXAS AVE
TEXAS CITY, TX 77590
Phone 409-948-3461
Manager: C MICHAEL ORR
2008 TEXAS AVE
TEXAS CITY, TX 77590
Phone 409-948-3461

Airport Operational Statistics

Aircraft based on the field: 1
Single engine airplanes: 1
    

Additional Remarks

FOR CD CTC HOUSTON ARTCC AT 281-230-5622.

Instrument Procedures

There are no published instrument procedures at TS50.

Some nearby airports with instrument procedures:

KGLS - Scholes International Airport at Galveston (12 nm SE)
KEFD - Ellington Airport (14 nm NW)
KLVJ - Pearland Regional Airport (14 nm NW)
T41 - La Porte Municipal Airport (15 nm N)
KHOU - William P Hobby Airport (20 nm NW)
 
Loc | Ops | Rwys | IFR | FBO | Links
Com | Nav | Svcs | Stats | Notes
Area around TS50 (Austinia Airport)
 
Road maps at: MapQuest Bing Google
 
Aerial photo
No photo
 
Sectional chart

 
Airport distance calculator
Flying to Austinia Airport? Find the distance to fly.

From to TS50

Sunrise and sunset
Times for 23-Oct-2019
 Local
(UTC-5)
 Zulu
(UTC)
Morning civil twilight07:0412:04
Sunrise07:2812:28
Sunset18:4123:41
Evening civil twilight19:0500:05

Current date and time
Zulu (UTC)  24-Oct-2019 00:38:18
Local (UTC-5)  23-Oct-2019 19:38:18
 
METAR
KGLS 
11nm SE 
232352Z AUTO 12012KT 10SM CLR 24/15 A3005 RMK AO2 SLP175 T02390150 10267 20239 55003
KEFD 
14nm NW 
232350Z 11008KT 10SM SKC 22/12 A3001
KLVJ 
14nm NW 
232353Z AUTO 12007KT 10SM CLR 23/14 A3005 RMK AO2 SLP174 T02330139 10278 20233 55002
KHOU 
20nm NW 
232353Z 12011KT 10SM CLR 23/13 A3003 RMK AO2 SLP173 T02330133 10272 20233 55002
TAF
KGLS 
11nm SE 
240027Z 2400/2424 11012KT P6SM SCT250 FM241700 10015KT P6SM BKN050 FM242300 09013KT P6SM OVC025
KEFD 
14nm NW 
232000Z 2320/2502 13010G15KT 9999 SKC QNH3001INS TEMPO 2320/2322 13015G20KT BECMG 2322/2323 12009KT 9999 FEW040 QNH3001INS BECMG 2414/2415 09010G15KT 9999 FEW020 SCT025 SCT040 QNH3003INS TEMPO 2417/2422 09015G25KT BECMG 2423/2424 07009KT 9999 BKN025 OVC040 QNH2993INS TX28/2321Z TN10/2412Z
KHOU 
20nm NW 
240027Z 2400/2424 12010KT P6SM SKC FM241600 12012G18KT P6SM BKN100 FM242300 14012KT P6SM OVC050
NOTAMs
Click for the latest NOTAMs
NOTAMs are issued by the DoD/FAA and will open in a separate window not controlled by AirNav.

 

 
 

Would you like to see your business listed on this page?

 If your business provides an interesting product or service to pilots, flight crews, aircraft, or users of the Austinia Airport, you should consider listing it here.  To start the listing process, click on the button below
 
Add a business
 

Other Pages about Austinia Airport

Update a link
 
Copyright © AirNav, LLC. All rights reserved. Privacy Policy  Contact